Hlavní strana
METAR-TAF:

METAR-TAF

Letiště :

Biskra, Alžírsko

zeměpisná šířka: 34-48N, zeměpisná délka: 005-44E, výška: 87 m

Aktuální stav počasí

Zpráva byla vytvořena před 29 minutami, v 12:00 UTC
Východní vítr 4 kt
Teplota 36°C
Vlhkost vzduchu 22%
Tlak 1005 hPa
Viditelnost 10 km a více
Žádná oblačnost pod 1500 m, nevyskytují se cumulonimby.

METAR: DAUB 041200Z 10004KT CAVOK 36/11 Q1005

Čas: 13:29 (12:29 UTC)

Předpověď počasí

Zpráva byla vytvořena před 1 hodinou a 29 minutami, v 11:00 UTC
Předpověď platná od 04 v 12 UTC do 05 v 12 UTC
Severovýchodní vítr 8 kt
Viditelnost 10 km a více
Žádná oblačnost pod 1500 m, nevyskytují se cumulonimby.
Pravděpodobnost 30% :
Dočasný
od 04 v 12 UTC do 04 v 18 UTC
Severoseverozápadní vítr 12 kt
Změna
od 04 v 18 UTC do 04 v 20 UTC
Severoseverozápadní vítr 20 kt
Dočasný
od 04 v 21 UTC do 05 v 09 UTC
Severoseverozápadní vítr 20 kt s nárazy do 35 kt

TAF: DAUB 041100Z 0412/0512 04008KT CAVOK PROB30 TEMPO 0412/0418 34012KT BECMG 0418/0420 34020KT TEMPO 0421/0509 34020G35KT

Stav a předpovědi počasí z více než 4 000 letišť (zprávy METAR a TAF).

Červené a žluté tečky na mapě představují dostupné meteorologické stanice.

Když kurzor umístíte na tečku, zobrazí se název stanice.

Pak kliknutím zobrazíte stav a předpověď počasí.

Chcete-li změnit mapu, kliknutím na zelené tlačítko se znaménkem +mapu přiblížíte, kliknutím na zelené tlačítko se znaménkem – mapu oddálíte a kliknutím na zelené šipky přejdete na sousední mapy.


METAR-TAF: